sensor_id;sensor_type;location;lat;lon;timestamp;temperature;humidity
49731;DHT22;35622;52.008;5.426;2023-07-02T00:01:43;20.30;99.90
49731;DHT22;35622;52.008;5.426;2023-07-02T00:04:09;19.90;99.90
49731;DHT22;35622;52.008;5.426;2023-07-02T00:06:35;19.60;99.90
49731;DHT22;35622;52.008;5.426;2023-07-02T00:09:06;19.70;99.90
49731;DHT22;35622;52.008;5.426;2023-07-02T00:11:32;19.70;99.90
49731;DHT22;35622;52.008;5.426;2023-07-02T00:13:57;19.70;99.90
49731;DHT22;35622;52.008;5.426;2023-07-02T00:16:23;19.80;99.90
49731;DHT22;35622;52.008;5.426;2023-07-02T00:18:48;19.80;99.90
49731;DHT22;35622;52.008;5.426;2023-07-02T00:21:18;19.90;99.90
49731;DHT22;35622;52.008;5.426;2023-07-02T00:23:44;20.10;99.90
49731;DHT22;35622;52.008;5.426;2023-07-02T00:26:10;20.10;99.90
49731;DHT22;35622;52.008;5.426;2023-07-02T00:28:36;20.10;99.90
49731;DHT22;35622;52.008;5.426;2023-07-02T00:31:01;20.10;99.90
49731;DHT22;35622;52.008;5.426;2023-07-02T00:33:27;20.00;99.90
49731;DHT22;35622;52.008;5.426;2023-07-02T00:35:54;20.00;99.90
49731;DHT22;35622;52.008;5.426;2023-07-02T00:38:20;20.00;99.90
49731;DHT22;35622;52.008;5.426;2023-07-02T00:40:45;20.00;99.90
49731;DHT22;35622;52.008;5.426;2023-07-02T00:43:11;19.90;99.90
49731;DHT22;35622;52.008;5.426;2023-07-02T00:45:39;20.00;99.90
49731;DHT22;35622;52.008;5.426;2023-07-02T00:48:07;19.80;99.90
49731;DHT22;35622;52.008;5.426;2023-07-02T00:50:33;19.80;99.90
49731;DHT22;35622;52.008;5.426;2023-07-02T00:52:59;19.80;99.90
49731;DHT22;35622;52.008;5.426;2023-07-02T00:55:25;19.90;99.90
49731;DHT22;35622;52.008;5.426;2023-07-02T00:57:50;19.90;99.90
49731;DHT22;35622;52.008;5.426;2023-07-02T01:00:16;19.80;99.90
49731;DHT22;35622;52.008;5.426;2023-07-02T01:02:42;19.80;99.90
49731;DHT22;35622;52.008;5.426;2023-07-02T01:05:16;19.80;99.90
49731;DHT22;35622;52.008;5.426;2023-07-02T01:07:42;19.80;99.90
49731;DHT22;35622;52.008;5.426;2023-07-02T01:10:08;19.80;99.90
49731;DHT22;35622;52.008;5.426;2023-07-02T01:12:35;19.70;99.90
49731;DHT22;35622;52.008;5.426;2023-07-02T01:15:03;19.60;99.90
49731;DHT22;35622;52.008;5.426;2023-07-02T01:17:31;19.60;99.90
49731;DHT22;35622;52.008;5.426;2023-07-02T01:20:03;19.60;99.90
49731;DHT22;35622;52.008;5.426;2023-07-02T01:22:30;19.50;99.90
49731;DHT22;35622;52.008;5.426;2023-07-02T01:24:56;19.40;99.90
49731;DHT22;35622;52.008;5.426;2023-07-02T01:27:22;19.40;99.90
49731;DHT22;35622;52.008;5.426;2023-07-02T01:29:52;19.40;99.90
49731;DHT22;35622;52.008;5.426;2023-07-02T01:32:17;19.30;99.90
49731;DHT22;35622;52.008;5.426;2023-07-02T01:34:43;19.30;99.90
49731;DHT22;35622;52.008;5.426;2023-07-02T01:37:09;19.30;99.90
49731;DHT22;35622;52.008;5.426;2023-07-02T01:39:35;19.20;99.90
49731;DHT22;35622;52.008;5.426;2023-07-02T01:42:12;19.10;99.90
49731;DHT22;35622;52.008;5.426;2023-07-02T01:44:41;19.00;99.90
49731;DHT22;35622;52.008;5.426;2023-07-02T01:47:06;19.00;99.90
49731;DHT22;35622;52.008;5.426;2023-07-02T01:49:32;18.90;99.90
49731;DHT22;35622;52.008;5.426;2023-07-02T01:51:58;18.80;99.90
49731;DHT22;35622;52.008;5.426;2023-07-02T01:54:25;18.70;99.90
49731;DHT22;35622;52.008;5.426;2023-07-02T01:56:54;18.70;99.90
49731;DHT22;35622;52.008;5.426;2023-07-02T01:59:20;18.60;99.90
49731;DHT22;35622;52.008;5.426;2023-07-02T02:01:45;18.60;99.90
49731;DHT22;35622;52.008;5.426;2023-07-02T02:04:11;18.50;99.90
49731;DHT22;35622;52.008;5.426;2023-07-02T02:06:38;18.50;99.90
49731;DHT22;35622;52.008;5.426;2023-07-02T02:09:04;18.40;99.90
49731;DHT22;35622;52.008;5.426;2023-07-02T02:11:31;18.40;99.90
49731;DHT22;35622;52.008;5.426;2023-07-02T02:13:57;18.30;99.90
49731;DHT22;35622;52.008;5.426;2023-07-02T02:16:23;18.30;99.90
49731;DHT22;35622;52.008;5.426;2023-07-02T02:18:49;18.30;99.90
49731;DHT22;35622;52.008;5.426;2023-07-02T02:21:17;18.20;99.90
49731;DHT22;35622;52.008;5.426;2023-07-02T02:23:43;18.20;99.90
49731;DHT22;35622;52.008;5.426;2023-07-02T02:26:09;18.30;99.90
49731;DHT22;35622;52.008;5.426;2023-07-02T02:28:34;18.20;99.90
49731;DHT22;35622;52.008;5.426;2023-07-02T02:31:00;18.20;99.90
49731;DHT22;35622;52.008;5.426;2023-07-02T02:33:26;18.20;99.90
49731;DHT22;35622;52.008;5.426;2023-07-02T02:35:51;18.10;99.90
49731;DHT22;35622;52.008;5.426;2023-07-02T02:38:17;18.10;99.90
49731;DHT22;35622;52.008;5.426;2023-07-02T02:40:42;18.10;99.90
49731;DHT22;35622;52.008;5.426;2023-07-02T02:43:08;18.10;99.90
49731;DHT22;35622;52.008;5.426;2023-07-02T02:45:34;18.10;99.90
49731;DHT22;35622;52.008;5.426;2023-07-02T02:47:59;18.10;99.90
49731;DHT22;35622;52.008;5.426;2023-07-02T02:50:25;18.10;99.90
49731;DHT22;35622;52.008;5.426;2023-07-02T02:52:50;18.10;99.90
49731;DHT22;35622;52.008;5.426;2023-07-02T02:55:16;18.10;99.90
49731;DHT22;35622;52.008;5.426;2023-07-02T02:57:41;18.00;99.90
49731;DHT22;35622;52.008;5.426;2023-07-02T03:00:08;18.10;99.90
49731;DHT22;35622;52.008;5.426;2023-07-02T03:02:34;18.00;99.90
49731;DHT22;35622;52.008;5.426;2023-07-02T03:05:01;18.00;99.90
49731;DHT22;35622;52.008;5.426;2023-07-02T03:07:31;18.10;99.90
49731;DHT22;35622;52.008;5.426;2023-07-02T03:09:57;18.10;99.90
49731;DHT22;35622;52.008;5.426;2023-07-02T03:12:24;18.10;99.90
49731;DHT22;35622;52.008;5.426;2023-07-02T03:14:50;18.00;99.90
49731;DHT22;35622;52.008;5.426;2023-07-02T03:17:19;17.90;99.90
49731;DHT22;35622;52.008;5.426;2023-07-02T03:19:44;18.00;99.90
49731;DHT22;35622;52.008;5.426;2023-07-02T03:22:10;18.00;99.90
49731;DHT22;35622;52.008;5.426;2023-07-02T03:24:36;18.00;99.90
49731;DHT22;35622;52.008;5.426;2023-07-02T03:27:01;17.90;99.90
49731;DHT22;35622;52.008;5.426;2023-07-02T03:29:27;17.90;99.90
49731;DHT22;35622;52.008;5.426;2023-07-02T03:31:52;17.80;99.90
49731;DHT22;35622;52.008;5.426;2023-07-02T03:34:18;17.80;99.90
49731;DHT22;35622;52.008;5.426;2023-07-02T03:36:43;17.70;99.90
49731;DHT22;35622;52.008;5.426;2023-07-02T03:39:10;17.70;99.90
49731;DHT22;35622;52.008;5.426;2023-07-02T03:41:35;17.70;99.90
49731;DHT22;35622;52.008;5.426;2023-07-02T03:44:01;17.60;99.90
49731;DHT22;35622;52.008;5.426;2023-07-02T03:46:27;17.60;99.90
49731;DHT22;35622;52.008;5.426;2023-07-02T03:48:52;17.60;99.90
49731;DHT22;35622;52.008;5.426;2023-07-02T03:51:18;17.60;99.90
49731;DHT22;35622;52.008;5.426;2023-07-02T03:53:43;17.50;99.90
49731;DHT22;35622;52.008;5.426;2023-07-02T03:56:09;17.50;99.90
49731;DHT22;35622;52.008;5.426;2023-07-02T03:58:35;17.50;99.90
49731;DHT22;35622;52.008;5.426;2023-07-02T04:01:00;17.40;99.90
49731;DHT22;35622;52.008;5.426;2023-07-02T04:03:26;17.40;99.90
49731;DHT22;35622;52.008;5.426;2023-07-02T04:05:51;17.40;99.90
49731;DHT22;35622;52.008;5.426;2023-07-02T04:08:17;17.40;99.90
49731;DHT22;35622;52.008;5.426;2023-07-02T04:10:43;17.40;99.90
49731;DHT22;35622;52.008;5.426;2023-07-02T04:13:09;17.30;99.90
49731;DHT22;35622;52.008;5.426;2023-07-02T04:15:35;17.30;99.90
49731;DHT22;35622;52.008;5.426;2023-07-02T04:18:00;17.30;99.90
49731;DHT22;35622;52.008;5.426;2023-07-02T04:20:26;17.30;99.90
49731;DHT22;35622;52.008;5.426;2023-07-02T04:22:54;17.30;99.90
49731;DHT22;35622;52.008;5.426;2023-07-02T04:25:20;17.30;99.90
49731;DHT22;35622;52.008;5.426;2023-07-02T04:27:45;17.30;99.90
49731;DHT22;35622;52.008;5.426;2023-07-02T04:30:11;17.30;99.90
49731;DHT22;35622;52.008;5.426;2023-07-02T04:32:38;17.30;99.90
49731;DHT22;35622;52.008;5.426;2023-07-02T04:35:09;17.30;99.90
49731;DHT22;35622;52.008;5.426;2023-07-02T04:37:35;17.30;99.90
49731;DHT22;35622;52.008;5.426;2023-07-02T04:40:01;17.30;99.90
49731;DHT22;35622;52.008;5.426;2023-07-02T04:42:29;17.40;99.90
49731;DHT22;35622;52.008;5.426;2023-07-02T04:44:57;17.60;99.90
49731;DHT22;35622;52.008;5.426;2023-07-02T04:47:28;17.70;99.90
49731;DHT22;35622;52.008;5.426;2023-07-02T04:49:54;17.80;99.90
49731;DHT22;35622;52.008;5.426;2023-07-02T04:52:19;17.90;99.90
49731;DHT22;35622;52.008;5.426;2023-07-02T04:54:45;18.10;99.90
49731;DHT22;35622;52.008;5.426;2023-07-02T04:57:10;18.10;99.90
49731;DHT22;35622;52.008;5.426;2023-07-02T04:59:36;18.20;99.90
49731;DHT22;35622;52.008;5.426;2023-07-02T05:02:02;18.40;99.90
49731;DHT22;35622;52.008;5.426;2023-07-02T05:04:28;18.30;99.90
49731;DHT22;35622;52.008;5.426;2023-07-02T05:06:53;18.50;99.90
49731;DHT22;35622;52.008;5.426;2023-07-02T05:09:19;18.50;99.90
49731;DHT22;35622;52.008;5.426;2023-07-02T05:11:44;18.60;99.90
49731;DHT22;35622;52.008;5.426;2023-07-02T05:14:10;18.70;99.90
49731;DHT22;35622;52.008;5.426;2023-07-02T05:16:35;18.90;99.90
49731;DHT22;35622;52.008;5.426;2023-07-02T05:19:01;18.90;99.90
49731;DHT22;35622;52.008;5.426;2023-07-02T05:21:26;18.90;99.90
49731;DHT22;35622;52.008;5.426;2023-07-02T05:23:52;18.90;99.90
49731;DHT22;35622;52.008;5.426;2023-07-02T05:26:17;19.00;99.90
49731;DHT22;35622;52.008;5.426;2023-07-02T05:28:43;19.10;99.90
49731;DHT22;35622;52.008;5.426;2023-07-02T05:31:09;19.20;99.90
49731;DHT22;35622;52.008;5.426;2023-07-02T05:33:35;19.20;99.90
49731;DHT22;35622;52.008;5.426;2023-07-02T05:36:01;19.30;99.90
49731;DHT22;35622;52.008;5.426;2023-07-02T05:38:26;19.40;99.90
49731;DHT22;35622;52.008;5.426;2023-07-02T05:40:52;19.50;99.90
49731;DHT22;35622;52.008;5.426;2023-07-02T05:43:18;19.60;99.90
49731;DHT22;35622;52.008;5.426;2023-07-02T05:45:43;19.70;99.90
49731;DHT22;35622;52.008;5.426;2023-07-02T05:48:09;19.50;99.90
49731;DHT22;35622;52.008;5.426;2023-07-02T05:50:35;19.50;99.90
49731;DHT22;35622;52.008;5.426;2023-07-02T05:53:00;19.60;99.90
49731;DHT22;35622;52.008;5.426;2023-07-02T05:55:26;19.60;99.90
49731;DHT22;35622;52.008;5.426;2023-07-02T05:57:51;19.60;99.90
49731;DHT22;35622;52.008;5.426;2023-07-02T06:00:17;19.70;99.90
49731;DHT22;35622;52.008;5.426;2023-07-02T06:02:42;20.00;99.90
49731;DHT22;35622;52.008;5.426;2023-07-02T06:05:08;20.20;99.90
49731;DHT22;35622;52.008;5.426;2023-07-02T06:07:34;20.50;99.90
49731;DHT22;35622;52.008;5.426;2023-07-02T06:09:59;20.60;99.90
49731;DHT22;35622;52.008;5.426;2023-07-02T06:12:25;21.10;99.90
49731;DHT22;35622;52.008;5.426;2023-07-02T06:14:50;21.50;99.90
49731;DHT22;35622;52.008;5.426;2023-07-02T06:17:16;22.00;99.90
49731;DHT22;35622;52.008;5.426;2023-07-02T06:19:41;22.70;99.20
49731;DHT22;35622;52.008;5.426;2023-07-02T06:22:07;23.40;96.70
49731;DHT22;35622;52.008;5.426;2023-07-02T06:24:33;23.60;95.70
49731;DHT22;35622;52.008;5.426;2023-07-02T06:26:58;24.00;94.60
49731;DHT22;35622;52.008;5.426;2023-07-02T06:29:24;24.00;90.80
49731;DHT22;35622;52.008;5.426;2023-07-02T06:31:50;24.30;92.40
49731;DHT22;35622;52.008;5.426;2023-07-02T06:34:16;24.40;90.90
49731;DHT22;35622;52.008;5.426;2023-07-02T06:36:42;24.60;89.60
49731;DHT22;35622;52.008;5.426;2023-07-02T06:39:08;24.90;89.30
49731;DHT22;35622;52.008;5.426;2023-07-02T06:41:38;25.00;87.40
49731;DHT22;35622;52.008;5.426;2023-07-02T06:44:03;24.40;83.50
49731;DHT22;35622;52.008;5.426;2023-07-02T06:46:30;23.60;89.30
49731;DHT22;35622;52.008;5.426;2023-07-02T06:48:55;23.10;89.00
49731;DHT22;35622;52.008;5.426;2023-07-02T06:51:21;22.50;90.40
49731;DHT22;35622;52.008;5.426;2023-07-02T06:53:47;21.50;88.30
49731;DHT22;35622;52.008;5.426;2023-07-02T06:56:13;21.40;91.40
49731;DHT22;35622;52.008;5.426;2023-07-02T06:58:42;21.30;93.80
49731;DHT22;35622;52.008;5.426;2023-07-02T07:01:09;21.90;94.60
49731;DHT22;35622;52.008;5.426;2023-07-02T07:03:37;22.50;95.10
49731;DHT22;35622;52.008;5.426;2023-07-02T07:06:03;22.70;91.50
49731;DHT22;35622;52.008;5.426;2023-07-02T07:08:29;22.80;90.30
49731;DHT22;35622;52.008;5.426;2023-07-02T07:10:55;23.00;88.80
49731;DHT22;35622;52.008;5.426;2023-07-02T07:13:20;23.40;89.40
49731;DHT22;35622;52.008;5.426;2023-07-02T07:15:46;24.10;89.10
49731;DHT22;35622;52.008;5.426;2023-07-02T07:18:12;24.70;82.50
49731;DHT22;35622;52.008;5.426;2023-07-02T07:20:39;24.60;77.90
49731;DHT22;35622;52.008;5.426;2023-07-02T07:23:08;24.70;81.40
49731;DHT22;35622;52.008;5.426;2023-07-02T07:25:34;24.80;81.70
49731;DHT22;35622;52.008;5.426;2023-07-02T07:28:00;25.10;79.40
49731;DHT22;35622;52.008;5.426;2023-07-02T07:30:26;24.90;75.70
49731;DHT22;35622;52.008;5.426;2023-07-02T07:32:55;24.70;74.70
49731;DHT22;35622;52.008;5.426;2023-07-02T07:35:21;24.50;74.80
49731;DHT22;35622;52.008;5.426;2023-07-02T07:37:47;23.80;70.10
49731;DHT22;35622;52.008;5.426;2023-07-02T07:40:13;23.40;76.80
49731;DHT22;35622;52.008;5.426;2023-07-02T07:42:40;23.40;77.70
49731;DHT22;35622;52.008;5.426;2023-07-02T07:45:06;23.60;77.30
49731;DHT22;35622;52.008;5.426;2023-07-02T07:47:31;24.20;76.80
49731;DHT22;35622;52.008;5.426;2023-07-02T07:49:57;24.90;69.20
49731;DHT22;35622;52.008;5.426;2023-07-02T07:52:22;25.00;62.70
49731;DHT22;35622;52.008;5.426;2023-07-02T07:54:48;24.40;63.40
49731;DHT22;35622;52.008;5.426;2023-07-02T07:57:14;23.90;59.10
49731;DHT22;35622;52.008;5.426;2023-07-02T07:59:40;24.20;70.80
49731;DHT22;35622;52.008;5.426;2023-07-02T08:02:06;24.40;62.50
49731;DHT22;35622;52.008;5.426;2023-07-02T08:04:31;24.10;66.60
49731;DHT22;35622;52.008;5.426;2023-07-02T08:06:57;24.00;67.30
49731;DHT22;35622;52.008;5.426;2023-07-02T08:09:23;23.90;70.90
49731;DHT22;35622;52.008;5.426;2023-07-02T08:11:50;23.40;59.80
49731;DHT22;35622;52.008;5.426;2023-07-02T08:14:16;22.90;58.90
49731;DHT22;35622;52.008;5.426;2023-07-02T08:16:42;23.00;67.80
49731;DHT22;35622;52.008;5.426;2023-07-02T08:19:07;23.20;75.80
49731;DHT22;35622;52.008;5.426;2023-07-02T08:21:33;23.50;72.50
49731;DHT22;35622;52.008;5.426;2023-07-02T08:23:58;22.70;63.70
49731;DHT22;35622;52.008;5.426;2023-07-02T08:26:24;23.00;72.80
49731;DHT22;35622;52.008;5.426;2023-07-02T08:28:50;22.60;63.40
49731;DHT22;35622;52.008;5.426;2023-07-02T08:31:16;22.30;64.70
49731;DHT22;35622;52.008;5.426;2023-07-02T08:33:41;22.20;65.50
49731;DHT22;35622;52.008;5.426;2023-07-02T08:36:07;22.60;66.70
49731;DHT22;35622;52.008;5.426;2023-07-02T08:38:33;22.60;68.20
49731;DHT22;35622;52.008;5.426;2023-07-02T08:40:58;22.90;70.40
49731;DHT22;35622;52.008;5.426;2023-07-02T08:43:26;23.00;63.10
49731;DHT22;35622;52.008;5.426;2023-07-02T08:45:52;23.20;64.50
49731;DHT22;35622;52.008;5.426;2023-07-02T08:48:18;23.90;61.70
49731;DHT22;35622;52.008;5.426;2023-07-02T08:50:48;24.20;59.40
49731;DHT22;35622;52.008;5.426;2023-07-02T08:53:14;24.30;57.20
49731;DHT22;35622;52.008;5.426;2023-07-02T08:55:40;23.80;54.90
49731;DHT22;35622;52.008;5.426;2023-07-02T08:58:05;23.90;55.90
49731;DHT22;35622;52.008;5.426;2023-07-02T09:00:31;23.30;56.20
49731;DHT22;35622;52.008;5.426;2023-07-02T09:03:13;23.40;58.50
49731;DHT22;35622;52.008;5.426;2023-07-02T09:05:51;23.60;56.00
49731;DHT22;35622;52.008;5.426;2023-07-02T09:08:27;23.80;56.10
49731;DHT22;35622;52.008;5.426;2023-07-02T09:10:54;24.50;53.10
49731;DHT22;35622;52.008;5.426;2023-07-02T09:13:19;25.10;50.30
49731;DHT22;35622;52.008;5.426;2023-07-02T09:15:45;25.50;53.90
49731;DHT22;35622;52.008;5.426;2023-07-02T09:18:21;25.30;49.90
49731;DHT22;35622;52.008;5.426;2023-07-02T09:20:54;25.00;49.30
49731;DHT22;35622;52.008;5.426;2023-07-02T09:23:21;25.00;51.80
49731;DHT22;35622;52.008;5.426;2023-07-02T09:25:46;25.10;48.50
49731;DHT22;35622;52.008;5.426;2023-07-02T09:28:20;24.50;47.70
49731;DHT22;35622;52.008;5.426;2023-07-02T09:30:54;23.80;52.90
49731;DHT22;35622;52.008;5.426;2023-07-02T09:33:20;23.70;52.90
49731;DHT22;35622;52.008;5.426;2023-07-02T09:35:46;23.70;53.60
49731;DHT22;35622;52.008;5.426;2023-07-02T09:38:12;23.40;53.60
49731;DHT22;35622;52.008;5.426;2023-07-02T09:40:47;22.70;51.10
49731;DHT22;35622;52.008;5.426;2023-07-02T09:43:15;22.20;51.80
49731;DHT22;35622;52.008;5.426;2023-07-02T09:45:47;22.10;54.00
49731;DHT22;35622;52.008;5.426;2023-07-02T09:48:14;22.60;52.20
49731;DHT22;35622;52.008;5.426;2023-07-02T09:50:47;22.60;51.30
49731;DHT22;35622;52.008;5.426;2023-07-02T09:53:14;22.60;56.40
49731;DHT22;35622;52.008;5.426;2023-07-02T09:55:42;22.70;53.40
49731;DHT22;35622;52.008;5.426;2023-07-02T09:58:07;23.00;50.40
49731;DHT22;35622;52.008;5.426;2023-07-02T10:00:34;22.80;48.40
49731;DHT22;35622;52.008;5.426;2023-07-02T10:03:00;22.90;48.30
49731;DHT22;35622;52.008;5.426;2023-07-02T10:05:29;22.90;50.60
49731;DHT22;35622;52.008;5.426;2023-07-02T10:07:57;23.50;51.00
49731;DHT22;35622;52.008;5.426;2023-07-02T10:10:32;24.00;45.70
49731;DHT22;35622;52.008;5.426;2023-07-02T10:12:58;24.10;47.80
49731;DHT22;35622;52.008;5.426;2023-07-02T10:15:27;24.70;46.10
49731;DHT22;35622;52.008;5.426;2023-07-02T10:18:01;24.90;44.50
49731;DHT22;35622;52.008;5.426;2023-07-02T10:20:38;25.20;46.40
49731;DHT22;35622;52.008;5.426;2023-07-02T10:23:05;25.50;40.80
49731;DHT22;35622;52.008;5.426;2023-07-02T10:25:36;25.50;39.60
49731;DHT22;35622;52.008;5.426;2023-07-02T10:28:15;25.60;38.30
49731;DHT22;35622;52.008;5.426;2023-07-02T10:30:41;25.70;38.30
49731;DHT22;35622;52.008;5.426;2023-07-02T10:33:17;25.60;41.80
49731;DHT22;35622;52.008;5.426;2023-07-02T10:35:45;25.70;40.40
49731;DHT22;35622;52.008;5.426;2023-07-02T10:38:21;25.90;40.80
49731;DHT22;35622;52.008;5.426;2023-07-02T10:40:57;26.10;36.60
49731;DHT22;35622;52.008;5.426;2023-07-02T10:43:30;26.50;38.90
49731;DHT22;35622;52.008;5.426;2023-07-02T10:45:58;26.70;35.70
49731;DHT22;35622;52.008;5.426;2023-07-02T10:48:25;26.90;37.20
49731;DHT22;35622;52.008;5.426;2023-07-02T10:50:50;26.90;38.60
49731;DHT22;35622;52.008;5.426;2023-07-02T10:53:17;25.80;36.00
49731;DHT22;35622;52.008;5.426;2023-07-02T10:55:44;24.90;37.00
49731;DHT22;35622;52.008;5.426;2023-07-02T10:58:10;24.60;41.50
49731;DHT22;35622;52.008;5.426;2023-07-02T11:00:50;25.10;46.50
49731;DHT22;35622;52.008;5.426;2023-07-02T11:03:23;25.90;38.20
49731;DHT22;35622;52.008;5.426;2023-07-02T11:05:49;26.20;35.90
49731;DHT22;35622;52.008;5.426;2023-07-02T11:08:15;25.90;37.90
49731;DHT22;35622;52.008;5.426;2023-07-02T11:10:41;25.10;38.30
49731;DHT22;35622;52.008;5.426;2023-07-02T11:13:14;25.30;42.80
49731;DHT22;35622;52.008;5.426;2023-07-02T11:15:41;25.30;39.30
49731;DHT22;35622;52.008;5.426;2023-07-02T11:18:17;25.20;38.40
49731;DHT22;35622;52.008;5.426;2023-07-02T11:20:44;25.60;40.60
49731;DHT22;35622;52.008;5.426;2023-07-02T11:23:21;26.10;41.90
49731;DHT22;35622;52.008;5.426;2023-07-02T11:25:59;25.80;37.70
49731;DHT22;35622;52.008;5.426;2023-07-02T11:28:25;25.80;35.90
49731;DHT22;35622;52.008;5.426;2023-07-02T11:30:51;25.20;35.70
49731;DHT22;35622;52.008;5.426;2023-07-02T11:33:17;25.40;35.90
49731;DHT22;35622;52.008;5.426;2023-07-02T11:35:42;25.80;37.60
49731;DHT22;35622;52.008;5.426;2023-07-02T11:38:11;26.40;36.30
49731;DHT22;35622;52.008;5.426;2023-07-02T11:40:37;26.90;38.90
49731;DHT22;35622;52.008;5.426;2023-07-02T11:43:02;26.50;34.60
49731;DHT22;35622;52.008;5.426;2023-07-02T11:45:28;26.70;33.60
49731;DHT22;35622;52.008;5.426;2023-07-02T11:47:54;27.20;34.80
49731;DHT22;35622;52.008;5.426;2023-07-02T11:50:20;27.30;33.00
49731;DHT22;35622;52.008;5.426;2023-07-02T11:52:45;26.50;33.10
49731;DHT22;35622;52.008;5.426;2023-07-02T11:55:11;26.10;34.30
49731;DHT22;35622;52.008;5.426;2023-07-02T11:57:37;25.60;33.50
49731;DHT22;35622;52.008;5.426;2023-07-02T12:00:04;25.30;36.00
49731;DHT22;35622;52.008;5.426;2023-07-02T12:02:29;25.20;35.80
49731;DHT22;35622;52.008;5.426;2023-07-02T12:04:55;25.20;37.60
49731;DHT22;35622;52.008;5.426;2023-07-02T12:07:20;25.10;36.60
49731;DHT22;35622;52.008;5.426;2023-07-02T12:09:46;24.80;37.40
49731;DHT22;35622;52.008;5.426;2023-07-02T12:12:12;24.90;38.10
49731;DHT22;35622;52.008;5.426;2023-07-02T12:14:38;25.30;37.70
49731;DHT22;35622;52.008;5.426;2023-07-02T12:17:07;25.50;37.90
49731;DHT22;35622;52.008;5.426;2023-07-02T12:19:32;25.80;37.20
49731;DHT22;35622;52.008;5.426;2023-07-02T12:21:58;25.60;36.70
49731;DHT22;35622;52.008;5.426;2023-07-02T12:24:23;25.50;37.70
49731;DHT22;35622;52.008;5.426;2023-07-02T12:26:49;25.40;35.60
49731;DHT22;35622;52.008;5.426;2023-07-02T12:29:14;25.10;37.30
49731;DHT22;35622;52.008;5.426;2023-07-02T12:31:40;25.60;35.50
49731;DHT22;35622;52.008;5.426;2023-07-02T12:34:06;25.50;37.60
49731;DHT22;35622;52.008;5.426;2023-07-02T12:36:31;25.90;39.60
49731;DHT22;35622;52.008;5.426;2023-07-02T12:38:57;26.30;37.30
49731;DHT22;35622;52.008;5.426;2023-07-02T12:41:22;26.40;39.10
49731;DHT22;35622;52.008;5.426;2023-07-02T12:43:48;26.40;36.20
49731;DHT22;35622;52.008;5.426;2023-07-02T12:46:13;26.10;34.90
49731;DHT22;35622;52.008;5.426;2023-07-02T12:48:39;25.20;35.50
49731;DHT22;35622;52.008;5.426;2023-07-02T12:51:04;25.20;39.30
49731;DHT22;35622;52.008;5.426;2023-07-02T12:53:30;25.80;39.40
49731;DHT22;35622;52.008;5.426;2023-07-02T12:55:55;26.30;37.50
49731;DHT22;35622;52.008;5.426;2023-07-02T12:58:21;26.40;35.70
49731;DHT22;35622;52.008;5.426;2023-07-02T13:00:47;26.00;35.80
49731;DHT22;35622;52.008;5.426;2023-07-02T13:03:13;25.90;40.70
49731;DHT22;35622;52.008;5.426;2023-07-02T13:05:39;25.80;36.20
49731;DHT22;35622;52.008;5.426;2023-07-02T13:08:05;26.20;39.20
49731;DHT22;35622;52.008;5.426;2023-07-02T13:10:33;26.60;35.50
49731;DHT22;35622;52.008;5.426;2023-07-02T13:12:59;26.70;34.90
49731;DHT22;35622;52.008;5.426;2023-07-02T13:15:24;26.40;34.60
49731;DHT22;35622;52.008;5.426;2023-07-02T13:17:50;26.40;36.10
49731;DHT22;35622;52.008;5.426;2023-07-02T13:20:16;26.80;36.80
49731;DHT22;35622;52.008;5.426;2023-07-02T13:22:42;26.60;35.50
49731;DHT22;35622;52.008;5.426;2023-07-02T13:25:07;26.60;35.70
49731;DHT22;35622;52.008;5.426;2023-07-02T13:27:33;26.70;37.80
49731;DHT22;35622;52.008;5.426;2023-07-02T13:29:59;26.50;37.50
49731;DHT22;35622;52.008;5.426;2023-07-02T13:32:25;26.20;37.70
49731;DHT22;35622;52.008;5.426;2023-07-02T13:34:50;26.10;36.40
49731;DHT22;35622;52.008;5.426;2023-07-02T13:37:16;25.80;39.80
49731;DHT22;35622;52.008;5.426;2023-07-02T13:39:48;26.00;38.20
49731;DHT22;35622;52.008;5.426;2023-07-02T13:42:14;25.90;36.60
49731;DHT22;35622;52.008;5.426;2023-07-02T13:44:41;26.00;38.20
49731;DHT22;35622;52.008;5.426;2023-07-02T13:47:06;25.70;37.50
49731;DHT22;35622;52.008;5.426;2023-07-02T13:49:32;26.00;39.20
49731;DHT22;35622;52.008;5.426;2023-07-02T13:51:58;26.10;35.90
49731;DHT22;35622;52.008;5.426;2023-07-02T13:54:24;26.00;36.70
49731;DHT22;35622;52.008;5.426;2023-07-02T13:56:49;25.90;36.20
49731;DHT22;35622;52.008;5.426;2023-07-02T13:59:16;25.60;37.60
49731;DHT22;35622;52.008;5.426;2023-07-02T14:01:43;25.60;37.20
49731;DHT22;35622;52.008;5.426;2023-07-02T14:04:09;25.70;38.10
49731;DHT22;35622;52.008;5.426;2023-07-02T14:06:35;25.90;39.70
49731;DHT22;35622;52.008;5.426;2023-07-02T14:09:01;25.90;38.90
49731;DHT22;35622;52.008;5.426;2023-07-02T14:11:27;25.90;38.60
49731;DHT22;35622;52.008;5.426;2023-07-02T14:13:53;26.20;38.20
49731;DHT22;35622;52.008;5.426;2023-07-02T14:16:19;26.20;36.20
49731;DHT22;35622;52.008;5.426;2023-07-02T14:18:45;26.30;37.80
49731;DHT22;35622;52.008;5.426;2023-07-02T14:21:10;25.80;35.20
49731;DHT22;35622;52.008;5.426;2023-07-02T14:23:36;25.70;36.20
49731;DHT22;35622;52.008;5.426;2023-07-02T14:26:01;25.40;35.70
49731;DHT22;35622;52.008;5.426;2023-07-02T14:28:27;25.00;36.20
49731;DHT22;35622;52.008;5.426;2023-07-02T14:31:02;24.80;36.70
49731;DHT22;35622;52.008;5.426;2023-07-02T14:33:30;24.60;38.60
49731;DHT22;35622;52.008;5.426;2023-07-02T14:35:56;24.40;39.10
49731;DHT22;35622;52.008;5.426;2023-07-02T14:38:22;24.60;37.30
49731;DHT22;35622;52.008;5.426;2023-07-02T14:40:49;24.50;36.90
49731;DHT22;35622;52.008;5.426;2023-07-02T14:43:15;24.30;35.30
49731;DHT22;35622;52.008;5.426;2023-07-02T14:45:52;24.20;36.90
49731;DHT22;35622;52.008;5.426;2023-07-02T14:48:18;24.20;37.20
49731;DHT22;35622;52.008;5.426;2023-07-02T14:50:55;24.40;37.40
49731;DHT22;35622;52.008;5.426;2023-07-02T14:53:22;24.70;37.50
49731;DHT22;35622;52.008;5.426;2023-07-02T14:55:49;24.70;35.30
49731;DHT22;35622;52.008;5.426;2023-07-02T14:58:16;24.50;34.10
49731;DHT22;35622;52.008;5.426;2023-07-02T15:00:46;24.50;35.10
49731;DHT22;35622;52.008;5.426;2023-07-02T15:03:12;24.40;34.90
49731;DHT22;35622;52.008;5.426;2023-07-02T15:05:39;24.50;35.90
49731;DHT22;35622;52.008;5.426;2023-07-02T15:08:06;24.80;35.50
49731;DHT22;35622;52.008;5.426;2023-07-02T15:10:32;24.70;35.10
49731;DHT22;35622;52.008;5.426;2023-07-02T15:13:00;24.30;36.00
49731;DHT22;35622;52.008;5.426;2023-07-02T15:15:26;24.10;37.10
49731;DHT22;35622;52.008;5.426;2023-07-02T15:17:51;24.40;37.00
49731;DHT22;35622;52.008;5.426;2023-07-02T15:20:17;24.50;37.50
49731;DHT22;35622;52.008;5.426;2023-07-02T15:22:43;24.30;38.10
49731;DHT22;35622;52.008;5.426;2023-07-02T15:25:08;24.30;38.20
49731;DHT22;35622;52.008;5.426;2023-07-02T15:27:34;24.10;38.40